No particular awareness of the weather is required.    There are no Weather-warnings


Meteo18 Weather Cam more information Meteo18 Weather Cam


Thunder radar more information blitzortung!


Rain radar more information rain snow radar


Visit our other weather sites:

Template documentation
and downloads

And another site



Weather Underground History page Text

Daily Summary for October 4, 2017 Units:  English    Metric   Both
« Previous Day
Next Day »
Daily Weekly Monthly Yearly Custom
  High: Low: Average:
Temperature: 66 °F 43.5 °F 52.9 °F
Dew Point: 52.3 °F 42.3 °F 47.1 °F
Humidity: 96 % 52 % 82 %
Wind Speed: 3 mph 0 mph 0.4 mph
Wind Gust: 6 mph - -
Wind:- - SSW
Pressure: 30.4 in 30.3 in -
Precipitation: 0 in    
Historical Graphs
 
 
Tabular Data for October 4, 2017
Time Temperature Dew Point Pressure Wind Wind Speed Wind Gust Humidity Rainfall Rate (Hourly)
00:02 48.7 °F 46.2 °F 30.4 in WNW 1 mph 1 mph 91 % 0 in
00:12 48.4 °F 46.2 °F 30.4 in Calm   2 mph 92 % 0 in
00:17 48.2 °F 45.7 °F 30.4 in Calm   2 mph 91 % 0 in
00:22 48.2 °F 46 °F 30.4 in WNW 1 mph 2 mph 92 % 0 in
00:32 47.8 °F 45.7 °F 30.4 in Calm   1 mph 92 % 0 in
00:42 47.7 °F 45.7 °F 30.4 in Calm   1 mph 93 % 0 in
00:47 47.7 °F 45.7 °F 30.4 in North 1 mph 1 mph 93 % 0 in
00:52 48 °F 46 °F 30.4 in NNW 1 mph 2 mph 93 % 0 in
00:57 48 °F 46 °F 30.4 in Calm   2 mph 93 % 0 in
01:02 47.7 °F 45.5 °F 30.4 in Calm   2 mph 92 % 0 in
01:12 47.5 °F 45.5 °F 30.4 in NNE 1 mph   93 % 0 in
01:17 47.5 °F 45.5 °F 30.4 in Calm   1 mph 93 % 0 in
01:22 47.1 °F 45 °F 30.4 in Calm   1 mph 92 % 0 in
01:27 47.1 °F 45.1 °F 30.4 in Calm   1 mph 93 % 0 in
01:32 46.9 °F 45 °F 30.4 in Calm   1 mph 93 % 0 in
01:37 46.8 °F 44.8 °F 30.3 in Calm   1 mph 93 % 0 in
01:42 46.9 °F 45.3 °F 30.3 in NNW 1 mph 1 mph 94 % 0 in
01:47 46.9 °F 45.3 °F 30.3 in NNW 2 mph 2 mph 94 % 0 in
01:52 46.9 °F 45.3 °F 30.3 in Calm   3 mph 94 % 0 in
01:57 46.8 °F 45.1 °F 30.3 in NW 1 mph 3 mph 94 % 0 in
02:02 46.8 °F 45.1 °F 30.3 in Calm   3 mph 94 % 0 in
02:12 46.6 °F 45 °F 30.3 in WNW 1 mph 1 mph 94 % 0 in
02:17 46.4 °F 44.8 °F 30.3 in Calm   1 mph 94 % 0 in
02:22 46.2 °F 44.6 °F 30.3 in Calm   1 mph 94 % 0 in
02:27 46 °F 44.4 °F 30.3 in Calm   1 mph 94 % 0 in
02:32 46.2 °F 44.8 °F 30.3 in North 1 mph 1 mph 95 % 0 in
02:37 46.2 °F 44.8 °F 30.3 in NNW 1 mph 2 mph 95 % 0 in
02:42 46.6 °F 45.1 °F 30.3 in Calm   2 mph 95 % 0 in
02:47 46.8 °F 45.3 °F 30.3 in Calm   2 mph 95 % 0 in
02:52 46.8 °F 45.1 °F 30.3 in Calm   2 mph 94 % 0 in
02:57 46.6 °F 44.6 °F 30.3 in NNW 1 mph 1 mph 93 % 0 in
03:02 46.2 °F 44.6 °F 30.3 in Calm   1 mph 94 % 0 in
03:07 46.2 °F 44.6 °F 30.3 in Calm   1 mph 94 % 0 in
03:12 46.4 °F 44.8 °F 30.3 in Calm   1 mph 94 % 0 in
03:17 46.4 °F 44.8 °F 30.3 in NNW 1 mph 2 mph 94 % 0 in
03:22 46.2 °F 44.6 °F 30.3 in NNW 2 mph 2 mph 94 % 0 in
03:27 46 °F 44.4 °F 30.4 in NNW 1 mph 3 mph 94 % 0 in
03:32 46 °F 44.4 °F 30.3 in North 1 mph 3 mph 94 % 0 in
03:42 46.4 °F 44.8 °F 30.3 in Calm   2 mph 94 % 0 in
03:47 46.2 °F 44.2 °F 30.3 in Calm   1 mph 93 % 0 in
03:52 46 °F 44.1 °F 30.3 in NW 1 mph 1 mph 93 % 0 in
03:57 45.9 °F 43.9 °F 30.3 in Calm   1 mph 93 % 0 in
04:02 46 °F 44.4 °F 30.3 in Calm   1 mph 94 % 0 in
04:07 45.9 °F 43.9 °F 30.3 in Calm   1 mph 93 % 0 in
04:12 45.3 °F 43.3 °F 30.3 in Calm   1 mph 93 % 0 in
04:17 45.3 °F 43.7 °F 30.3 in North 2 mph 2 mph 94 % 0 in
04:22 45.7 °F 44.4 °F 30.3 in North 1 mph 2 mph 95 % 0 in
04:27 45.9 °F 44.2 °F 30.3 in NNW 1 mph 2 mph 94 % 0 in
04:32 46 °F 44.4 °F 30.3 in Calm   2 mph 94 % 0 in
04:37 45.9 °F 44.2 °F 30.3 in Calm   2 mph 94 % 0 in
04:42 45.7 °F 43.7 °F 30.3 in Calm   2 mph 93 % 0 in
04:47 45.1 °F 43.2 °F 30.3 in NW 1 mph   93 % 0 in
04:52 45 °F 43.3 °F 30.3 in Calm   2 mph 94 % 0 in
04:57 45 °F 43.3 °F 30.3 in Calm   2 mph 94 % 0 in
05:02 45 °F 43.3 °F 30.3 in Calm   2 mph 94 % 0 in
05:07 44.8 °F 43.2 °F 30.3 in North 1 mph 1 mph 94 % 0 in
05:17 44.8 °F 43.5 °F 30.3 in North 1 mph 2 mph 95 % 0 in
05:22 44.8 °F 43.5 °F 30.3 in North 1 mph 2 mph 95 % 0 in
05:32 44.8 °F 43.5 °F 30.3 in North 1 mph 1 mph 95 % 0 in
05:37 44.6 °F 43.3 °F 30.3 in North 1 mph 1 mph 95 % 0 in
05:42 44.4 °F 43.2 °F 30.3 in North 1 mph 1 mph 95 % 0 in
05:47 44.2 °F 42.6 °F 30.3 in Calm   2 mph 94 % 0 in
05:57 44.2 °F 43 °F 30.3 in Calm   2 mph 95 % 0 in
06:02 44.2 °F 43 °F 30.3 in Calm   2 mph 95 % 0 in
06:12 44.1 °F 42.4 °F 30.3 in Calm   1 mph 94 % 0 in
06:17 43.7 °F 42.4 °F 30.3 in Calm     95 % 0 in
06:22 43.5 °F 42.3 °F 30.3 in Calm     95 % 0 in
06:32 43.7 °F 42.4 °F 30.3 in Calm   1 mph 95 % 0 in
06:37 43.9 °F 42.8 °F 30.3 in Calm   1 mph 96 % 0 in
06:42 44.2 °F 43.2 °F 30.3 in Calm   1 mph 96 % 0 in
06:47 44.4 °F 43.3 °F 30.3 in Calm   1 mph 96 % 0 in
06:57 44.4 °F 43.2 °F 30.3 in Calm   2 mph 95 % 0 in
07:02 44.4 °F 43.2 °F 30.3 in Calm   2 mph 95 % 0 in
07:12 44.4 °F 43.2 °F 30.3 in Calm   1 mph 95 % 0 in
07:17 44.4 °F 43.3 °F 30.3 in Calm     96 % 0 in
07:22 44.4 °F 43.3 °F 30.3 in Calm   1 mph 96 % 0 in
07:27 44.6 °F 43.5 °F 30.3 in Calm   1 mph 96 % 0 in
07:32 44.8 °F 43.7 °F 30.3 in Calm   1 mph 96 % 0 in
07:47 44.2 °F 43 °F 30.3 in Calm     95 % 0 in
07:52 44.2 °F 43.2 °F 30.3 in Calm     96 % 0 in
07:57 44.4 °F 43.3 °F 30.3 in Calm     96 % 0 in
08:02 44.4 °F 43.3 °F 30.3 in NNE 1 mph 1 mph 96 % 0 in
08:12 44.4 °F 43.3 °F 30.3 in Calm   1 mph 96 % 0 in
08:17 44.4 °F 43.3 °F 30.3 in Calm   1 mph 96 % 0 in
08:22 44.4 °F 43.3 °F 30.3 in Calm   1 mph 96 % 0 in
08:32 44.8 °F 43.7 °F 30.3 in Calm     96 % 0 in
08:37 45 °F 43.9 °F 30.3 in Calm     96 % 0 in
08:42 45.1 °F 44.1 °F 30.3 in Calm     96 % 0 in
08:52 45.5 °F 44.4 °F 30.3 in Calm     96 % 0 in
08:57 45.7 °F 44.6 °F 30.3 in Calm     96 % 0 in
09:02 45.9 °F 44.8 °F 30.3 in Calm     96 % 0 in
09:12 46.2 °F 45.1 °F 30.3 in Calm     96 % 0 in
09:17 46.6 °F 45.5 °F 30.4 in Calm     96 % 0 in
09:22 46.8 °F 45.7 °F 30.4 in Calm     96 % 0 in
09:27 46.9 °F 45.9 °F 30.4 in Calm     96 % 0 in
09:32 47.1 °F 46 °F 30.4 in Calm     96 % 0 in
09:37 47.3 °F 46.2 °F 30.4 in Calm     96 % 0 in
09:42 47.7 °F 46.6 °F 30.4 in Calm     96 % 0 in
09:47 47.8 °F 46.8 °F 30.4 in Calm     96 % 0 in
09:52 48.2 °F 47.1 °F 30.4 in Calm     96 % 0 in
09:57 48.4 °F 47.3 °F 30.4 in Calm     96 % 0 in
10:02 48.6 °F 47.1 °F 30.4 in Calm     95 % 0 in
10:12 49.3 °F 47.8 °F 30.4 in Calm     95 % 0 in
10:17 49.8 °F 48.4 °F 30.4 in Calm     95 % 0 in
10:22 50.2 °F 48.6 °F 30.4 in Calm     94 % 0 in
10:27 50.5 °F 48.9 °F 30.4 in Calm     94 % 0 in
10:32 50.9 °F 48.9 °F 30.4 in Calm     93 % 0 in
10:37 51.3 °F 49.1 °F 30.4 in Calm     92 % 0 in
10:42 51.8 °F 49.3 °F 30.4 in Calm     91 % 0 in
10:47 52 °F 48.6 °F 30.4 in Calm     88 % 0 in
10:52 52.3 °F 48.6 °F 30.4 in Calm     87 % 0 in
10:57 52.3 °F 47.3 °F 30.4 in Calm     83 % 0 in
11:02 52.5 °F 48.2 °F 30.4 in Calm     85 % 0 in
11:12 53.2 °F 48.6 °F 30.4 in Calm     84 % 0 in
11:17 53.6 °F 48.9 °F 30.4 in Calm     84 % 0 in
11:22 53.8 °F 48.7 °F 30.4 in Calm   2 mph 83 % 0 in
11:32 55 °F 49.6 °F 30.4 in Calm   2 mph 82 % 0 in
11:37 55.8 °F 49.6 °F 30.4 in Calm   1 mph 80 % 0 in
11:42 55.9 °F 49.5 °F 30.4 in Calm   2 mph 79 % 0 in
11:47 55.9 °F 49.5 °F 30.4 in Calm   2 mph 79 % 0 in
11:52 56.1 °F 50.4 °F 30.4 in Calm   2 mph 81 % 0 in
11:57 56.7 °F 50.2 °F 30.4 in Calm   2 mph 79 % 0 in
12:02 57 °F 50.5 °F 30.4 in Calm   2 mph 79 % 0 in
12:07 56.5 °F 49.6 °F 30.4 in ESE 1 mph 2 mph 78 % 0 in
12:12 56.3 °F 50.5 °F 30.4 in Calm   4 mph 81 % 0 in
12:17 57 °F 50.9 °F 30.4 in South 3 mph 4 mph 80 % 0 in
12:22 57.6 °F 51.1 °F 30.4 in ESE 1 mph 3 mph 79 % 0 in
12:32 57.9 °F 50.7 °F 30.4 in SSW 1 mph 4 mph 77 % 0 in
12:42 58.8 °F 50.9 °F 30.4 in Calm   5 mph 75 % 0 in
12:57 59.5 °F 51.3 °F 30.4 in Calm   4 mph 74 % 0 in
13:02 59.5 °F 50.9 °F 30.4 in ESE 3 mph 4 mph 73 % 0 in
13:07 59.7 °F 51.1 °F 30.4 in ESE 1 mph 4 mph 73 % 0 in
13:12 60.4 °F 51.1 °F 30.4 in Calm   4 mph 71 % 0 in
13:17 61 °F 50 °F 30.4 in Calm   4 mph 67 % 0 in
13:22 61.3 °F 50.7 °F 30.4 in Calm   4 mph 68 % 0 in
13:27 61.3 °F 50.4 °F 30.4 in Calm   4 mph 67 % 0 in
13:32 61.2 °F 49.3 °F 30.4 in East 1 mph 3 mph 65 % 0 in
13:37 61.2 °F 48.9 °F 30.4 in Calm   3 mph 64 % 0 in
13:47 61.5 °F 49.3 °F 30.4 in SW 2 mph 5 mph 64 % 0 in
13:52 61.9 °F 49.6 °F 30.4 in SE 1 mph 4 mph 64 % 0 in
13:57 61.9 °F 48.7 °F 30.4 in SSW 1 mph 4 mph 62 % 0 in
14:02 62.1 °F 48.4 °F 30.4 in Calm   3 mph 61 % 0 in
14:07 62.2 °F 48.6 °F 30.4 in ENE 2 mph 3 mph 61 % 0 in
14:12 62.4 °F 49.3 °F 30.4 in SE 2 mph 3 mph 62 % 0 in
14:17 62.8 °F 48.7 °F 30.3 in SW 2 mph 3 mph 60 % 0 in
14:22 62.8 °F 47.8 °F 30.3 in Calm   3 mph 58 % 0 in
14:32 62.1 °F 48.4 °F 30.3 in SW 2 mph 5 mph 61 % 0 in
14:37 62.2 °F 49.1 °F 30.3 in South 1 mph 5 mph 62 % 0 in
14:42 62.8 °F 49.1 °F 30.3 in SE 1 mph 5 mph 61 % 0 in
14:47 62.8 °F 49.1 °F 30.3 in Calm   5 mph 61 % 0 in
14:52 63 °F 48.9 °F 30.3 in ESE 3 mph 5 mph 60 % 0 in
14:57 62.6 °F 48 °F 30.3 in SSE 1 mph 5 mph 59 % 0 in
15:02 62.8 °F 47.8 °F 30.3 in ESE 2 mph 5 mph 58 % 0 in
15:12 63.1 °F 48.2 °F 30.3 in SW 1 mph 5 mph 58 % 0 in
15:17 63.3 °F 49.3 °F 30.3 in Calm   3 mph 60 % 0 in
15:22 63.7 °F 47.7 °F 30.3 in East 1 mph 3 mph 56 % 0 in
15:27 63 °F 48.9 °F 30.3 in Calm   3 mph 60 % 0 in
15:32 63 °F 48.9 °F 30.3 in SSW 1 mph 3 mph 60 % 0 in
15:37 63.3 °F 48.4 °F 30.3 in SE 1 mph 4 mph 58 % 0 in
15:42 63.7 °F 48.2 °F 30.3 in NW 2 mph 4 mph 57 % 0 in
15:52 63.7 °F 47.3 °F 30.3 in ENE 2 mph 3 mph 55 % 0 in
15:57 63.3 °F 47.8 °F 30.3 in Calm   3 mph 57 % 0 in
16:02 64 °F 49.5 °F 30.3 in SW 3 mph 3 mph 59 % 0 in
16:07 64.6 °F 48.6 °F 30.3 in West 3 mph 4 mph 56 % 0 in
16:12 64.6 °F 48.6 °F 30.3 in SW 1 mph 5 mph 56 % 0 in
16:17 64.6 °F 48.6 °F 30.3 in Calm   5 mph 56 % 0 in
16:22 64.8 °F 48.7 °F 30.3 in Calm   5 mph 56 % 0 in
16:32 64.8 °F 48.7 °F 30.3 in SSW 2 mph 6 mph 56 % 0 in
16:37 64.8 °F 48.7 °F 30.3 in Calm   5 mph 56 % 0 in
16:42 65.3 °F 48.2 °F 30.3 in Calm   5 mph 54 % 0 in
16:47 65.5 °F 47.5 °F 30.3 in Calm   5 mph 52 % 0 in
16:52 64.9 °F 48.4 °F 30.3 in Calm   2 mph 55 % 0 in
16:57 65.1 °F 48.6 °F 30.3 in Calm   2 mph 55 % 0 in
17:02 65.3 °F 48.7 °F 30.3 in Calm   2 mph 55 % 0 in
17:07 64.8 °F 48.7 °F 30.3 in Calm   3 mph 56 % 0 in
17:12 64.6 °F 47.5 °F 30.3 in SE 2 mph 5 mph 54 % 0 in
17:17 64.6 °F 48.6 °F 30.3 in SSW 3 mph 5 mph 56 % 0 in
17:22 64.8 °F 48.7 °F 30.3 in Calm   5 mph 56 % 0 in
17:27 65.1 °F 48.6 °F 30.3 in WSW 1 mph 4 mph 55 % 0 in
17:32 65.1 °F 48.6 °F 30.3 in Calm   4 mph 55 % 0 in
17:37 65.7 °F 49.1 °F 30.3 in SSW 1 mph 3 mph 55 % 0 in
17:42 65.8 °F 48.7 °F 30.3 in Calm   3 mph 54 % 0 in
17:47 66 °F 48.9 °F 30.3 in SSE 2 mph 3 mph 54 % 0 in
17:52 65.3 °F 48.7 °F 30.3 in Calm   3 mph 55 % 0 in
17:57 65.3 °F 48.7 °F 30.3 in Calm   3 mph 55 % 0 in
18:02 65.7 °F 49.1 °F 30.3 in Calm   3 mph 55 % 0 in
18:07 65.3 °F 48.2 °F 30.3 in WNW 1 mph 1 mph 54 % 0 in
18:12 64.8 °F 48.2 °F 30.3 in Calm   1 mph 55 % 0 in
18:17 64.8 °F 48.7 °F 30.3 in Calm   1 mph 56 % 0 in
18:22 64.6 °F 48 °F 30.3 in Calm   2 mph 55 % 0 in
18:32 64.6 °F 49.5 °F 30.3 in Calm   2 mph 58 % 0 in
18:42 64.8 °F 48.7 °F 30.3 in Calm   2 mph 56 % 0 in
18:47 64.9 °F 50.2 °F 30.3 in Calm   1 mph 59 % 0 in
18:52 65.1 °F 51.3 °F 30.3 in Calm   1 mph 61 % 0 in
18:57 65.7 °F 52.3 °F 30.3 in Calm   1 mph 62 % 0 in
19:02 64.9 °F 52 °F 30.3 in Calm     63 % 0 in
19:07 63.5 °F 50.2 °F 30.3 in Calm     62 % 0 in
19:12 62.2 °F 50.4 °F 30.3 in Calm     65 % 0 in
19:17 61 °F 50.4 °F 30.3 in Calm   1 mph 68 % 0 in
19:22 59.7 °F 50.4 °F 30.3 in Calm   1 mph 71 % 0 in
19:27 59.2 °F 50.2 °F 30.3 in Calm   1 mph 72 % 0 in
19:32 58.5 °F 49.1 °F 30.3 in Calm     71 % 0 in
19:37 57.6 °F 48.9 °F 30.3 in Calm   1 mph 73 % 0 in
19:42 56.8 °F 49.3 °F 30.3 in Calm   1 mph 76 % 0 in
19:47 56.3 °F 49.1 °F 30.3 in Calm   1 mph 77 % 0 in
19:52 56.1 °F 48.9 °F 30.3 in Calm     77 % 0 in
19:57 56.5 °F 49.6 °F 30.3 in Calm     78 % 0 in
20:02 55.9 °F 49.1 °F 30.3 in Calm     78 % 0 in
20:12 55.6 °F 49.5 °F 30.3 in Calm     80 % 0 in
20:17 55.4 °F 49.6 °F 30.3 in Calm   1 mph 81 % 0 in
20:22 54.7 °F 49.6 °F 30.3 in WNW 1 mph 2 mph 83 % 0 in
20:27 54.1 °F 49.8 °F 30.3 in Calm   2 mph 85 % 0 in
20:32 53.8 °F 49.6 °F 30.3 in Calm   1 mph 86 % 0 in
20:37 53.2 °F 49.5 °F 30.3 in WNW 1 mph 2 mph 87 % 0 in
20:42 52.9 °F 49.5 °F 30.3 in Calm   2 mph 88 % 0 in
20:47 52.5 °F 49.5 °F 30.3 in WNW 2 mph 2 mph 89 % 0 in
20:52 52.5 °F 49.5 °F 30.3 in Calm   2 mph 89 % 0 in
20:57 52.3 °F 49.3 °F 30.3 in North 1 mph 2 mph 89 % 0 in
21:02 52.3 °F 49.3 °F 30.3 in North 1 mph 2 mph 89 % 0 in
21:12 52.2 °F 49.3 °F 30.3 in Calm   2 mph 90 % 0 in
21:17 52 °F 48.9 °F 30.3 in Calm   1 mph 89 % 0 in
21:22 51.6 °F 48.7 °F 30.3 in WNW 1 mph 1 mph 90 % 0 in
21:27 51.4 °F 48.6 °F 30.3 in Calm   1 mph 90 % 0 in
21:32 51.3 °F 48.7 °F 30.3 in Calm   1 mph 91 % 0 in
21:37 51.1 °F 48.6 °F 30.3 in Calm   1 mph 91 % 0 in
21:42 51.4 °F 49.3 °F 30.3 in Calm   1 mph 92 % 0 in
21:52 51.4 °F 48.4 °F 30.3 in Calm   1 mph 89 % 0 in
21:57 51.1 °F 48 °F 30.3 in Calm   1 mph 89 % 0 in
22:02 50.7 °F 47.8 °F 30.3 in Calm     90 % 0 in
22:07 50.7 °F 48.2 °F 30.3 in Calm     91 % 0 in
22:17 50.2 °F 47.7 °F 30.3 in Calm   1 mph 91 % 0 in
22:22 49.8 °F 47.3 °F 30.3 in Calm   1 mph 91 % 0 in
22:27 49.6 °F 47.5 °F 30.3 in WNW 1 mph 1 mph 92 % 0 in
22:32 49.6 °F 47.5 °F 30.3 in Calm   1 mph 92 % 0 in
22:37 49.5 °F 47.3 °F 30.3 in NNE 1 mph 1 mph 92 % 0 in
22:42 49.6 °F 47.7 °F 30.3 in Calm   1 mph 93 % 0 in
22:47 49.6 °F 47.7 °F 30.3 in Calm   1 mph 93 % 0 in
22:52 49.5 °F 47.3 °F 30.3 in Calm   1 mph 92 % 0 in
22:57 48.9 °F 46.8 °F 30.3 in Calm   1 mph 92 % 0 in
23:02 48.7 °F 46.8 °F 30.3 in Calm     93 % 0 in
23:07 48.6 °F 46.6 °F 30.3 in Calm     93 % 0 in
23:12 48.4 °F 46.4 °F 30.3 in Calm     93 % 0 in
23:22 48.2 °F 46.6 °F 30.3 in Calm   1 mph 94 % 0 in
23:27 48.4 °F 46.8 °F 30.3 in Calm   1 mph 94 % 0 in
23:32 48.4 °F 46.8 °F 30.3 in Calm   1 mph 94 % 0 in
23:37 48.2 °F 46.2 °F 30.3 in Calm   1 mph 93 % 0 in
23:42 47.7 °F 45.7 °F 30.3 in Calm   1 mph 93 % 0 in
23:47 47.8 °F 46.2 °F 30.3 in Calm   1 mph 94 % 0 in
23:52 47.8 °F 46.2 °F 30.3 in Calm   1 mph 94 % 0 in
23:57 47.7 °F 45.7 °F 30.3 in WNW 1 mph   93 % 0 in
Meteo18
Compliments of Weather Underground - 4 mb

Script developed by  Jim McMurry - jmcmurry@mwt.net Adapted for the template by  Wim van der Kuil - Leuven-Template.eu

You find our weather info also at:

European Weather Network

Weather Underground

Equipment we use:

Weather-station
Davis Vue

Weather-program
Meteohub

Weather-server
Raspberry PI 2 B+

Provider
1 and 1

Davis Vue

Meteohub

Raspberry PI 2 B+

1 and 1